sensor_id;sensor_type;location;lat;lon;timestamp;P1;durP1;ratioP1;P2;durP2;ratioP2
44276;SDS011;29973;43.742;1.236;2023-02-15T00:01:36;34.55;;;18.10;;
44276;SDS011;29973;43.742;1.236;2023-02-15T00:04:02;25.67;;;16.08;;
44276;SDS011;29973;43.742;1.236;2023-02-15T00:06:29;30.77;;;16.25;;
44276;SDS011;29973;43.742;1.236;2023-02-15T00:08:55;28.60;;;16.27;;
44276;SDS011;29973;43.742;1.236;2023-02-15T00:11:21;25.52;;;15.50;;
44276;SDS011;29973;43.742;1.236;2023-02-15T00:14:06;30.08;;;15.63;;
44276;SDS011;29973;43.742;1.236;2023-02-15T00:16:33;29.23;;;15.90;;
44276;SDS011;29973;43.742;1.236;2023-02-15T00:19:00;28.40;;;15.50;;
44276;SDS011;29973;43.742;1.236;2023-02-15T00:21:27;32.03;;;15.43;;
44276;SDS011;29973;43.742;1.236;2023-02-15T00:23:55;32.75;;;17.35;;
44276;SDS011;29973;43.742;1.236;2023-02-15T00:26:21;31.30;;;16.83;;
44276;SDS011;29973;43.742;1.236;2023-02-15T00:28:47;30.08;;;15.10;;
44276;SDS011;29973;43.742;1.236;2023-02-15T00:31:13;26.38;;;13.23;;
44276;SDS011;29973;43.742;1.236;2023-02-15T00:33:38;20.10;;;11.98;;
44276;SDS011;29973;43.742;1.236;2023-02-15T00:36:05;22.85;;;11.50;;
44276;SDS011;29973;43.742;1.236;2023-02-15T00:38:32;25.08;;;15.32;;
44276;SDS011;29973;43.742;1.236;2023-02-15T00:41:00;27.55;;;14.52;;
44276;SDS011;29973;43.742;1.236;2023-02-15T00:43:28;27.10;;;14.40;;
44276;SDS011;29973;43.742;1.236;2023-02-15T00:45:55;30.27;;;15.57;;
44276;SDS011;29973;43.742;1.236;2023-02-15T00:48:21;30.40;;;16.80;;
44276;SDS011;29973;43.742;1.236;2023-02-15T00:50:51;31.83;;;16.30;;
44276;SDS011;29973;43.742;1.236;2023-02-15T00:53:19;32.40;;;17.00;;
44276;SDS011;29973;43.742;1.236;2023-02-15T00:55:45;33.53;;;18.15;;
44276;SDS011;29973;43.742;1.236;2023-02-15T00:58:11;29.73;;;17.27;;
44276;SDS011;29973;43.742;1.236;2023-02-15T01:00:38;30.40;;;18.27;;
44276;SDS011;29973;43.742;1.236;2023-02-15T01:03:06;38.58;;;20.05;;
44276;SDS011;29973;43.742;1.236;2023-02-15T01:05:31;38.17;;;18.17;;
44276;SDS011;29973;43.742;1.236;2023-02-15T01:07:57;37.30;;;20.30;;
44276;SDS011;29973;43.742;1.236;2023-02-15T01:10:24;31.90;;;18.77;;
44276;SDS011;29973;43.742;1.236;2023-02-15T01:12:51;33.85;;;19.35;;
44276;SDS011;29973;43.742;1.236;2023-02-15T01:15:17;38.78;;;20.42;;
44276;SDS011;29973;43.742;1.236;2023-02-15T01:17:43;38.72;;;22.30;;
44276;SDS011;29973;43.742;1.236;2023-02-15T01:20:16;38.35;;;19.48;;
44276;SDS011;29973;43.742;1.236;2023-02-15T01:22:46;35.97;;;20.23;;
44276;SDS011;29973;43.742;1.236;2023-02-15T01:25:11;38.15;;;20.90;;
44276;SDS011;29973;43.742;1.236;2023-02-15T01:27:37;32.20;;;18.75;;
44276;SDS011;29973;43.742;1.236;2023-02-15T01:30:03;32.45;;;20.05;;
44276;SDS011;29973;43.742;1.236;2023-02-15T01:32:30;31.80;;;18.63;;
44276;SDS011;29973;43.742;1.236;2023-02-15T01:34:56;31.88;;;17.98;;
44276;SDS011;29973;43.742;1.236;2023-02-15T01:37:22;35.67;;;20.95;;
44276;SDS011;29973;43.742;1.236;2023-02-15T01:39:47;32.83;;;19.42;;
44276;SDS011;29973;43.742;1.236;2023-02-15T01:42:13;33.10;;;18.70;;
44276;SDS011;29973;43.742;1.236;2023-02-15T01:44:49;32.55;;;19.73;;
44276;SDS011;29973;43.742;1.236;2023-02-15T01:50:04;32.33;;;19.77;;
44276;SDS011;29973;43.742;1.236;2023-02-15T01:52:30;34.55;;;20.20;;
44276;SDS011;29973;43.742;1.236;2023-02-15T01:54:56;31.70;;;19.48;;
44276;SDS011;29973;43.742;1.236;2023-02-15T01:57:22;33.20;;;19.08;;
44276;SDS011;29973;43.742;1.236;2023-02-15T01:59:51;31.92;;;19.23;;
44276;SDS011;29973;43.742;1.236;2023-02-15T02:02:20;32.25;;;19.52;;
44276;SDS011;29973;43.742;1.236;2023-02-15T02:04:50;34.90;;;18.75;;
44276;SDS011;29973;43.742;1.236;2023-02-15T02:07:20;33.28;;;18.58;;
44276;SDS011;29973;43.742;1.236;2023-02-15T02:09:47;33.88;;;19.50;;
44276;SDS011;29973;43.742;1.236;2023-02-15T02:12:14;35.42;;;21.55;;
44276;SDS011;29973;43.742;1.236;2023-02-15T02:14:41;32.97;;;18.50;;
44276;SDS011;29973;43.742;1.236;2023-02-15T02:17:14;33.33;;;19.60;;
44276;SDS011;29973;43.742;1.236;2023-02-15T02:31:44;38.33;;;21.17;;
44276;SDS011;29973;43.742;1.236;2023-02-15T02:39:43;27.85;;;17.80;;
44276;SDS011;29973;43.742;1.236;2023-02-15T02:42:39;29.38;;;17.75;;
44276;SDS011;29973;43.742;1.236;2023-02-15T02:50:14;24.45;;;16.30;;
44276;SDS011;29973;43.742;1.236;2023-02-15T02:52:46;28.75;;;16.67;;
44276;SDS011;29973;43.742;1.236;2023-02-15T03:00:43;25.55;;;15.50;;
44276;SDS011;29973;43.742;1.236;2023-02-15T03:03:28;25.45;;;15.93;;
44276;SDS011;29973;43.742;1.236;2023-02-15T03:05:59;24.92;;;15.43;;
44276;SDS011;29973;43.742;1.236;2023-02-15T03:08:31;26.45;;;16.67;;
44276;SDS011;29973;43.742;1.236;2023-02-15T03:11:02;34.22;;;15.25;;
44276;SDS011;29973;43.742;1.236;2023-02-15T03:13:29;24.85;;;14.68;;
44276;SDS011;29973;43.742;1.236;2023-02-15T03:15:56;32.28;;;17.23;;
44276;SDS011;29973;43.742;1.236;2023-02-15T03:18:43;28.60;;;16.15;;
44276;SDS011;29973;43.742;1.236;2023-02-15T03:21:19;34.90;;;16.50;;
44276;SDS011;29973;43.742;1.236;2023-02-15T03:26:20;28.10;;;14.93;;
44276;SDS011;29973;43.742;1.236;2023-02-15T03:28:48;25.90;;;16.02;;
44276;SDS011;29973;43.742;1.236;2023-02-15T03:31:18;28.02;;;17.27;;
44276;SDS011;29973;43.742;1.236;2023-02-15T03:33:57;32.70;;;17.38;;
44276;SDS011;29973;43.742;1.236;2023-02-15T03:41:31;44.85;;;20.65;;
44276;SDS011;29973;43.742;1.236;2023-02-15T03:44:11;35.78;;;19.55;;
44276;SDS011;29973;43.742;1.236;2023-02-15T03:47:04;33.17;;;18.98;;
44276;SDS011;29973;43.742;1.236;2023-02-15T03:52:25;34.00;;;18.77;;
44276;SDS011;29973;43.742;1.236;2023-02-15T03:54:53;32.80;;;18.27;;
44276;SDS011;29973;43.742;1.236;2023-02-15T03:57:26;34.83;;;19.67;;
44276;SDS011;29973;43.742;1.236;2023-02-15T04:00:14;33.10;;;16.92;;
44276;SDS011;29973;43.742;1.236;2023-02-15T04:08:30;30.40;;;15.88;;
44276;SDS011;29973;43.742;1.236;2023-02-15T04:11:30;39.55;;;17.52;;
44276;SDS011;29973;43.742;1.236;2023-02-15T04:14:01;31.50;;;18.95;;
44276;SDS011;29973;43.742;1.236;2023-02-15T04:16:47;33.72;;;18.50;;
44276;SDS011;29973;43.742;1.236;2023-02-15T04:19:16;40.78;;;20.58;;
44276;SDS011;29973;43.742;1.236;2023-02-15T04:22:00;34.30;;;18.15;;
44276;SDS011;29973;43.742;1.236;2023-02-15T04:24:44;35.72;;;19.20;;
44276;SDS011;29973;43.742;1.236;2023-02-15T04:27:29;30.80;;;18.15;;
44276;SDS011;29973;43.742;1.236;2023-02-15T04:30:07;31.92;;;17.08;;
44276;SDS011;29973;43.742;1.236;2023-02-15T04:32:34;33.63;;;18.65;;
44276;SDS011;29973;43.742;1.236;2023-02-15T04:35:00;32.47;;;18.33;;
44276;SDS011;29973;43.742;1.236;2023-02-15T04:37:26;37.65;;;17.65;;
44276;SDS011;29973;43.742;1.236;2023-02-15T04:39:52;32.30;;;17.38;;
44276;SDS011;29973;43.742;1.236;2023-02-15T04:42:18;35.53;;;18.98;;
44276;SDS011;29973;43.742;1.236;2023-02-15T04:44:43;36.42;;;18.38;;
44276;SDS011;29973;43.742;1.236;2023-02-15T04:47:09;36.72;;;18.88;;
44276;SDS011;29973;43.742;1.236;2023-02-15T04:49:35;36.17;;;18.67;;
44276;SDS011;29973;43.742;1.236;2023-02-15T04:52:01;37.15;;;19.80;;
44276;SDS011;29973;43.742;1.236;2023-02-15T04:54:27;29.55;;;16.98;;
44276;SDS011;29973;43.742;1.236;2023-02-15T04:56:56;34.08;;;18.08;;
44276;SDS011;29973;43.742;1.236;2023-02-15T04:59:22;35.63;;;18.48;;
44276;SDS011;29973;43.742;1.236;2023-02-15T05:01:47;35.30;;;17.45;;
44276;SDS011;29973;43.742;1.236;2023-02-15T05:04:13;33.47;;;16.88;;
44276;SDS011;29973;43.742;1.236;2023-02-15T05:06:39;35.45;;;18.92;;
44276;SDS011;29973;43.742;1.236;2023-02-15T05:09:05;31.88;;;17.80;;
44276;SDS011;29973;43.742;1.236;2023-02-15T05:11:31;38.88;;;17.85;;
44276;SDS011;29973;43.742;1.236;2023-02-15T05:13:57;33.83;;;17.27;;
44276;SDS011;29973;43.742;1.236;2023-02-15T05:16:23;33.78;;;17.58;;
44276;SDS011;29973;43.742;1.236;2023-02-15T05:18:50;33.67;;;17.30;;
44276;SDS011;29973;43.742;1.236;2023-02-15T05:21:16;30.90;;;16.90;;
44276;SDS011;29973;43.742;1.236;2023-02-15T05:23:42;34.25;;;17.38;;
44276;SDS011;29973;43.742;1.236;2023-02-15T05:26:11;41.25;;;18.02;;
44276;SDS011;29973;43.742;1.236;2023-02-15T05:28:58;31.33;;;16.45;;
44276;SDS011;29973;43.742;1.236;2023-02-15T05:31:24;27.35;;;16.00;;
44276;SDS011;29973;43.742;1.236;2023-02-15T05:33:50;30.02;;;16.45;;
44276;SDS011;29973;43.742;1.236;2023-02-15T05:36:21;35.33;;;17.60;;
44276;SDS011;29973;43.742;1.236;2023-02-15T05:38:47;27.23;;;14.75;;
44276;SDS011;29973;43.742;1.236;2023-02-15T05:41:13;29.83;;;17.05;;
44276;SDS011;29973;43.742;1.236;2023-02-15T05:43:39;31.13;;;15.90;;
44276;SDS011;29973;43.742;1.236;2023-02-15T05:46:05;29.67;;;16.35;;
44276;SDS011;29973;43.742;1.236;2023-02-15T05:48:32;32.45;;;16.05;;
44276;SDS011;29973;43.742;1.236;2023-02-15T05:53:28;29.48;;;16.55;;
44276;SDS011;29973;43.742;1.236;2023-02-15T05:55:55;29.42;;;16.58;;
44276;SDS011;29973;43.742;1.236;2023-02-15T05:58:24;30.90;;;16.35;;
44276;SDS011;29973;43.742;1.236;2023-02-15T06:00:56;30.33;;;16.75;;
44276;SDS011;29973;43.742;1.236;2023-02-15T06:03:22;32.40;;;16.40;;
44276;SDS011;29973;43.742;1.236;2023-02-15T06:05:50;31.98;;;15.43;;
44276;SDS011;29973;43.742;1.236;2023-02-15T06:08:17;29.17;;;15.73;;
44276;SDS011;29973;43.742;1.236;2023-02-15T06:10:44;32.08;;;16.92;;
44276;SDS011;29973;43.742;1.236;2023-02-15T06:13:11;27.88;;;15.13;;
44276;SDS011;29973;43.742;1.236;2023-02-15T06:15:36;32.17;;;17.23;;
44276;SDS011;29973;43.742;1.236;2023-02-15T06:18:02;31.73;;;16.50;;
44276;SDS011;29973;43.742;1.236;2023-02-15T06:20:28;38.63;;;15.82;;
44276;SDS011;29973;43.742;1.236;2023-02-15T06:22:54;36.47;;;17.23;;
44276;SDS011;29973;43.742;1.236;2023-02-15T06:25:20;31.75;;;17.00;;
44276;SDS011;29973;43.742;1.236;2023-02-15T06:27:46;41.45;;;18.80;;
44276;SDS011;29973;43.742;1.236;2023-02-15T06:30:17;42.13;;;18.58;;
44276;SDS011;29973;43.742;1.236;2023-02-15T06:32:46;35.10;;;17.55;;
44276;SDS011;29973;43.742;1.236;2023-02-15T06:35:14;38.80;;;18.33;;
44276;SDS011;29973;43.742;1.236;2023-02-15T06:37:40;40.75;;;19.48;;
44276;SDS011;29973;43.742;1.236;2023-02-15T06:40:11;41.83;;;18.70;;
44276;SDS011;29973;43.742;1.236;2023-02-15T06:42:43;38.58;;;18.38;;
44276;SDS011;29973;43.742;1.236;2023-02-15T06:45:12;44.20;;;22.38;;
44276;SDS011;29973;43.742;1.236;2023-02-15T06:47:38;37.13;;;18.67;;
44276;SDS011;29973;43.742;1.236;2023-02-15T06:52:41;43.90;;;20.83;;
44276;SDS011;29973;43.742;1.236;2023-02-15T06:55:07;44.40;;;23.35;;
44276;SDS011;29973;43.742;1.236;2023-02-15T06:57:33;41.90;;;21.67;;
44276;SDS011;29973;43.742;1.236;2023-02-15T06:59:59;39.17;;;21.15;;
44276;SDS011;29973;43.742;1.236;2023-02-15T07:02:25;47.85;;;21.95;;
44276;SDS011;29973;43.742;1.236;2023-02-15T07:04:51;46.00;;;22.25;;
44276;SDS011;29973;43.742;1.236;2023-02-15T07:07:16;50.67;;;24.38;;
44276;SDS011;29973;43.742;1.236;2023-02-15T07:09:42;39.50;;;20.40;;
44276;SDS011;29973;43.742;1.236;2023-02-15T07:12:09;42.67;;;20.42;;
44276;SDS011;29973;43.742;1.236;2023-02-15T07:14:53;47.80;;;21.85;;
44276;SDS011;29973;43.742;1.236;2023-02-15T07:17:36;43.13;;;23.67;;
44276;SDS011;29973;43.742;1.236;2023-02-15T07:20:07;44.42;;;23.63;;
44276;SDS011;29973;43.742;1.236;2023-02-15T07:22:46;42.20;;;22.50;;
44276;SDS011;29973;43.742;1.236;2023-02-15T07:25:16;74.63;;;38.10;;
44276;SDS011;29973;43.742;1.236;2023-02-15T07:27:45;43.67;;;22.05;;
44276;SDS011;29973;43.742;1.236;2023-02-15T07:30:12;48.80;;;24.95;;
44276;SDS011;29973;43.742;1.236;2023-02-15T07:32:43;45.10;;;23.42;;
44276;SDS011;29973;43.742;1.236;2023-02-15T07:35:27;43.80;;;24.05;;
44276;SDS011;29973;43.742;1.236;2023-02-15T07:37:56;51.00;;;26.58;;
44276;SDS011;29973;43.742;1.236;2023-02-15T07:40:25;55.17;;;30.98;;
44276;SDS011;29973;43.742;1.236;2023-02-15T07:42:57;66.10;;;34.03;;
44276;SDS011;29973;43.742;1.236;2023-02-15T07:45:24;65.90;;;34.88;;
44276;SDS011;29973;43.742;1.236;2023-02-15T07:47:49;50.45;;;23.05;;
44276;SDS011;29973;43.742;1.236;2023-02-15T07:50:15;48.13;;;27.05;;
44276;SDS011;29973;43.742;1.236;2023-02-15T07:52:43;65.68;;;34.85;;
44276;SDS011;29973;43.742;1.236;2023-02-15T07:55:09;74.78;;;37.88;;
44276;SDS011;29973;43.742;1.236;2023-02-15T07:57:45;70.93;;;36.75;;
44276;SDS011;29973;43.742;1.236;2023-02-15T08:00:13;55.28;;;29.95;;
44276;SDS011;29973;43.742;1.236;2023-02-15T08:02:40;34.58;;;21.35;;
44276;SDS011;29973;43.742;1.236;2023-02-15T08:05:09;34.72;;;19.58;;
44276;SDS011;29973;43.742;1.236;2023-02-15T08:07:35;39.53;;;22.33;;
44276;SDS011;29973;43.742;1.236;2023-02-15T08:10:01;32.33;;;18.05;;
44276;SDS011;29973;43.742;1.236;2023-02-15T08:12:29;36.55;;;18.50;;
44276;SDS011;29973;43.742;1.236;2023-02-15T08:14:55;34.08;;;19.67;;
44276;SDS011;29973;43.742;1.236;2023-02-15T08:17:21;38.38;;;23.05;;
44276;SDS011;29973;43.742;1.236;2023-02-15T08:19:48;38.13;;;20.73;;
44276;SDS011;29973;43.742;1.236;2023-02-15T08:22:14;34.78;;;19.30;;
44276;SDS011;29973;43.742;1.236;2023-02-15T08:24:40;29.30;;;17.40;;
44276;SDS011;29973;43.742;1.236;2023-02-15T08:27:10;31.67;;;17.20;;
44276;SDS011;29973;43.742;1.236;2023-02-15T08:29:37;26.33;;;16.88;;
44276;SDS011;29973;43.742;1.236;2023-02-15T08:32:04;34.00;;;17.90;;
44276;SDS011;29973;43.742;1.236;2023-02-15T08:34:35;35.00;;;18.27;;
44276;SDS011;29973;43.742;1.236;2023-02-15T08:37:06;35.10;;;18.83;;
44276;SDS011;29973;43.742;1.236;2023-02-15T08:39:33;31.23;;;18.90;;
44276;SDS011;29973;43.742;1.236;2023-02-15T08:41:59;36.17;;;20.40;;
44276;SDS011;29973;43.742;1.236;2023-02-15T08:44:28;33.17;;;19.30;;
44276;SDS011;29973;43.742;1.236;2023-02-15T08:46:54;35.88;;;18.45;;
44276;SDS011;29973;43.742;1.236;2023-02-15T08:49:22;36.65;;;18.50;;
44276;SDS011;29973;43.742;1.236;2023-02-15T08:51:49;27.75;;;16.58;;
44276;SDS011;29973;43.742;1.236;2023-02-15T08:54:16;27.45;;;15.88;;
44276;SDS011;29973;43.742;1.236;2023-02-15T08:56:44;22.88;;;15.55;;
44276;SDS011;29973;43.742;1.236;2023-02-15T08:59:12;22.75;;;14.55;;
44276;SDS011;29973;43.742;1.236;2023-02-15T09:01:40;27.75;;;15.00;;
44276;SDS011;29973;43.742;1.236;2023-02-15T09:04:09;27.83;;;14.98;;
44276;SDS011;29973;43.742;1.236;2023-02-15T09:06:40;22.30;;;13.93;;
44276;SDS011;29973;43.742;1.236;2023-02-15T09:09:12;26.60;;;14.57;;
44276;SDS011;29973;43.742;1.236;2023-02-15T09:11:41;23.27;;;13.85;;
44276;SDS011;29973;43.742;1.236;2023-02-15T09:16:39;27.25;;;13.40;;
44276;SDS011;29973;43.742;1.236;2023-02-15T09:19:07;25.30;;;14.45;;
44276;SDS011;29973;43.742;1.236;2023-02-15T09:21:35;21.77;;;14.10;;
44276;SDS011;29973;43.742;1.236;2023-02-15T09:24:05;27.20;;;15.18;;
44276;SDS011;29973;43.742;1.236;2023-02-15T09:26:36;21.65;;;13.02;;
44276;SDS011;29973;43.742;1.236;2023-02-15T09:29:05;21.30;;;12.43;;
44276;SDS011;29973;43.742;1.236;2023-02-15T09:31:39;23.10;;;13.13;;
44276;SDS011;29973;43.742;1.236;2023-02-15T09:34:10;21.35;;;13.13;;
44276;SDS011;29973;43.742;1.236;2023-02-15T09:36:42;20.65;;;13.55;;
44276;SDS011;29973;43.742;1.236;2023-02-15T09:39:16;20.75;;;14.25;;
44276;SDS011;29973;43.742;1.236;2023-02-15T09:53:25;20.75;;;13.15;;
44276;SDS011;29973;43.742;1.236;2023-02-15T10:04:04;16.13;;;10.48;;
44276;SDS011;29973;43.742;1.236;2023-02-15T10:06:42;17.10;;;9.88;;
44276;SDS011;29973;43.742;1.236;2023-02-15T10:09:27;17.42;;;9.68;;
44276;SDS011;29973;43.742;1.236;2023-02-15T10:15:31;21.20;;;6.88;;
44276;SDS011;29973;43.742;1.236;2023-02-15T10:18:19;12.48;;;6.07;;
44276;SDS011;29973;43.742;1.236;2023-02-15T10:26:42;10.02;;;5.85;;
44276;SDS011;29973;43.742;1.236;2023-02-15T10:31:54;11.35;;;5.50;;
44276;SDS011;29973;43.742;1.236;2023-02-15T10:34:35;11.98;;;5.60;;
44276;SDS011;29973;43.742;1.236;2023-02-15T10:48:01;7.65;;;5.05;;
44276;SDS011;29973;43.742;1.236;2023-02-15T10:50:50;12.48;;;5.22;;
44276;SDS011;29973;43.742;1.236;2023-02-15T10:56:24;10.85;;;5.25;;
44276;SDS011;29973;43.742;1.236;2023-02-15T11:04:38;9.90;;;5.45;;
44276;SDS011;29973;43.742;1.236;2023-02-15T11:12:51;9.85;;;4.97;;
44276;SDS011;29973;43.742;1.236;2023-02-15T11:15:55;9.48;;;5.40;;
44276;SDS011;29973;43.742;1.236;2023-02-15T11:20:57;13.10;;;6.00;;
44276;SDS011;29973;43.742;1.236;2023-02-15T11:23:35;10.23;;;5.10;;
44276;SDS011;29973;43.742;1.236;2023-02-15T11:26:06;8.52;;;4.75;;
44276;SDS011;29973;43.742;1.236;2023-02-15T11:31:18;14.85;;;4.93;;
44276;SDS011;29973;43.742;1.236;2023-02-15T11:33:47;9.40;;;5.55;;
44276;SDS011;29973;43.742;1.236;2023-02-15T11:36:24;11.10;;;5.50;;
44276;SDS011;29973;43.742;1.236;2023-02-15T11:38:56;8.73;;;4.68;;
44276;SDS011;29973;43.742;1.236;2023-02-15T11:41:28;7.25;;;4.30;;
44276;SDS011;29973;43.742;1.236;2023-02-15T11:44:05;9.73;;;5.65;;
44276;SDS011;29973;43.742;1.236;2023-02-15T11:46:37;8.82;;;4.65;;
44276;SDS011;29973;43.742;1.236;2023-02-15T11:49:08;7.97;;;4.38;;
44276;SDS011;29973;43.742;1.236;2023-02-15T11:51:48;11.55;;;6.50;;
44276;SDS011;29973;43.742;1.236;2023-02-15T11:54:19;11.65;;;5.95;;
44276;SDS011;29973;43.742;1.236;2023-02-15T11:56:50;9.05;;;5.18;;
44276;SDS011;29973;43.742;1.236;2023-02-15T11:59:21;8.68;;;5.13;;
44276;SDS011;29973;43.742;1.236;2023-02-15T12:02:01;17.15;;;7.43;;
44276;SDS011;29973;43.742;1.236;2023-02-15T12:04:37;7.57;;;4.20;;
44276;SDS011;29973;43.742;1.236;2023-02-15T12:07:23;9.43;;;5.03;;
44276;SDS011;29973;43.742;1.236;2023-02-15T12:12:42;7.63;;;4.80;;
44276;SDS011;29973;43.742;1.236;2023-02-15T12:15:10;9.00;;;4.43;;
44276;SDS011;29973;43.742;1.236;2023-02-15T12:22:54;8.48;;;3.78;;
44276;SDS011;29973;43.742;1.236;2023-02-15T12:25:40;9.52;;;3.88;;
44276;SDS011;29973;43.742;1.236;2023-02-15T12:31:07;5.63;;;3.92;;
44276;SDS011;29973;43.742;1.236;2023-02-15T12:33:47;9.98;;;4.05;;
44276;SDS011;29973;43.742;1.236;2023-02-15T12:36:19;8.18;;;3.70;;
44276;SDS011;29973;43.742;1.236;2023-02-15T12:44:20;7.15;;;3.95;;
44276;SDS011;29973;43.742;1.236;2023-02-15T12:47:04;5.53;;;3.35;;
44276;SDS011;29973;43.742;1.236;2023-02-15T12:49:42;8.05;;;3.92;;
44276;SDS011;29973;43.742;1.236;2023-02-15T12:54:45;8.68;;;4.20;;
44276;SDS011;29973;43.742;1.236;2023-02-15T13:00:11;8.30;;;3.83;;
44276;SDS011;29973;43.742;1.236;2023-02-15T13:02:52;7.72;;;3.80;;
44276;SDS011;29973;43.742;1.236;2023-02-15T13:05:28;6.78;;;4.10;;
44276;SDS011;29973;43.742;1.236;2023-02-15T13:08:12;5.90;;;3.70;;
44276;SDS011;29973;43.742;1.236;2023-02-15T13:13:29;6.47;;;4.05;;
44276;SDS011;29973;43.742;1.236;2023-02-15T13:16:03;4.85;;;3.70;;
44276;SDS011;29973;43.742;1.236;2023-02-15T13:18:36;7.00;;;4.45;;
44276;SDS011;29973;43.742;1.236;2023-02-15T13:21:20;4.80;;;3.50;;
44276;SDS011;29973;43.742;1.236;2023-02-15T13:24:00;6.85;;;3.72;;
44276;SDS011;29973;43.742;1.236;2023-02-15T13:26:31;7.65;;;3.40;;
44276;SDS011;29973;43.742;1.236;2023-02-15T13:29:01;6.50;;;3.60;;
44276;SDS011;29973;43.742;1.236;2023-02-15T13:31:36;8.93;;;3.90;;
44276;SDS011;29973;43.742;1.236;2023-02-15T13:39:46;9.98;;;3.92;;
44276;SDS011;29973;43.742;1.236;2023-02-15T13:47:27;6.93;;;3.65;;
44276;SDS011;29973;43.742;1.236;2023-02-15T13:55:51;5.88;;;3.25;;
44276;SDS011;29973;43.742;1.236;2023-02-15T14:01:20;6.30;;;3.70;;
44276;SDS011;29973;43.742;1.236;2023-02-15T14:25:57;7.72;;;4.15;;
44276;SDS011;29973;43.742;1.236;2023-02-15T14:28:49;5.77;;;3.37;;
44276;SDS011;29973;43.742;1.236;2023-02-15T14:31:28;7.53;;;3.45;;
44276;SDS011;29973;43.742;1.236;2023-02-15T14:33:59;6.72;;;3.42;;
44276;SDS011;29973;43.742;1.236;2023-02-15T14:36:25;6.18;;;3.78;;
44276;SDS011;29973;43.742;1.236;2023-02-15T14:42:12;6.32;;;4.22;;
44276;SDS011;29973;43.742;1.236;2023-02-15T14:44:51;6.70;;;3.60;;
44276;SDS011;29973;43.742;1.236;2023-02-15T14:53:22;8.18;;;3.22;;
44276;SDS011;29973;43.742;1.236;2023-02-15T14:58:36;5.18;;;3.25;;
44276;SDS011;29973;43.742;1.236;2023-02-15T15:01:06;7.93;;;4.00;;
44276;SDS011;29973;43.742;1.236;2023-02-15T15:03:34;8.57;;;3.58;;
44276;SDS011;29973;43.742;1.236;2023-02-15T15:06:02;5.32;;;3.58;;
44276;SDS011;29973;43.742;1.236;2023-02-15T15:08:39;5.53;;;3.45;;
44276;SDS011;29973;43.742;1.236;2023-02-15T15:14:00;7.05;;;3.58;;
44276;SDS011;29973;43.742;1.236;2023-02-15T15:19:01;5.20;;;3.28;;
44276;SDS011;29973;43.742;1.236;2023-02-15T15:35:34;9.23;;;3.00;;
44276;SDS011;29973;43.742;1.236;2023-02-15T15:49:28;9.00;;;3.22;;
44276;SDS011;29973;43.742;1.236;2023-02-15T15:51:59;10.93;;;3.58;;
44276;SDS011;29973;43.742;1.236;2023-02-15T15:54:26;7.63;;;3.63;;
44276;SDS011;29973;43.742;1.236;2023-02-15T15:57:03;7.63;;;3.17;;
44276;SDS011;29973;43.742;1.236;2023-02-15T15:59:30;5.50;;;2.95;;
44276;SDS011;29973;43.742;1.236;2023-02-15T16:02:04;7.20;;;3.60;;
44276;SDS011;29973;43.742;1.236;2023-02-15T16:04:37;6.85;;;3.50;;
44276;SDS011;29973;43.742;1.236;2023-02-15T16:09:41;6.65;;;3.53;;
44276;SDS011;29973;43.742;1.236;2023-02-15T16:12:19;6.80;;;3.35;;
44276;SDS011;29973;43.742;1.236;2023-02-15T16:14:45;5.35;;;2.78;;
44276;SDS011;29973;43.742;1.236;2023-02-15T16:19:45;8.65;;;2.97;;
44276;SDS011;29973;43.742;1.236;2023-02-15T16:22:21;3.17;;;2.47;;
44276;SDS011;29973;43.742;1.236;2023-02-15T16:27:44;10.43;;;3.03;;
44276;SDS011;29973;43.742;1.236;2023-02-15T16:32:42;9.63;;;3.53;;
44276;SDS011;29973;43.742;1.236;2023-02-15T16:35:11;7.35;;;3.47;;
44276;SDS011;29973;43.742;1.236;2023-02-15T16:37:40;7.93;;;3.30;;
44276;SDS011;29973;43.742;1.236;2023-02-15T16:40:06;4.95;;;3.58;;
44276;SDS011;29973;43.742;1.236;2023-02-15T16:43:13;7.15;;;3.72;;
44276;SDS011;29973;43.742;1.236;2023-02-15T16:45:40;7.13;;;3.53;;
44276;SDS011;29973;43.742;1.236;2023-02-15T16:48:08;6.07;;;3.60;;
44276;SDS011;29973;43.742;1.236;2023-02-15T16:50:40;6.93;;;3.78;;
44276;SDS011;29973;43.742;1.236;2023-02-15T16:53:16;11.40;;;3.80;;
44276;SDS011;29973;43.742;1.236;2023-02-15T16:55:49;8.15;;;3.10;;
44276;SDS011;29973;43.742;1.236;2023-02-15T16:58:18;5.00;;;3.13;;
44276;SDS011;29973;43.742;1.236;2023-02-15T17:00:50;6.78;;;3.72;;
44276;SDS011;29973;43.742;1.236;2023-02-15T17:03:21;8.80;;;4.10;;
44276;SDS011;29973;43.742;1.236;2023-02-15T17:05:55;10.45;;;4.07;;
44276;SDS011;29973;43.742;1.236;2023-02-15T17:13:39;10.73;;;4.80;;
44276;SDS011;29973;43.742;1.236;2023-02-15T17:16:28;12.65;;;6.85;;
44276;SDS011;29973;43.742;1.236;2023-02-15T17:18:59;23.73;;;10.02;;
44276;SDS011;29973;43.742;1.236;2023-02-15T17:21:32;16.60;;;6.78;;
44276;SDS011;29973;43.742;1.236;2023-02-15T17:24:02;20.45;;;10.80;;
44276;SDS011;29973;43.742;1.236;2023-02-15T17:26:35;14.63;;;9.35;;
44276;SDS011;29973;43.742;1.236;2023-02-15T17:29:15;14.40;;;9.25;;
44276;SDS011;29973;43.742;1.236;2023-02-15T17:31:48;16.23;;;8.35;;
44276;SDS011;29973;43.742;1.236;2023-02-15T17:37:24;18.30;;;10.35;;
44276;SDS011;29973;43.742;1.236;2023-02-15T17:39:50;19.27;;;9.63;;
44276;SDS011;29973;43.742;1.236;2023-02-15T17:42:16;29.10;;;11.30;;
44276;SDS011;29973;43.742;1.236;2023-02-15T17:44:41;25.27;;;13.38;;
44276;SDS011;29973;43.742;1.236;2023-02-15T17:47:09;45.38;;;24.95;;
44276;SDS011;29973;43.742;1.236;2023-02-15T17:49:42;25.85;;;17.15;;
44276;SDS011;29973;43.742;1.236;2023-02-15T17:52:12;91.38;;;41.47;;
44276;SDS011;29973;43.742;1.236;2023-02-15T17:54:39;97.78;;;42.47;;
44276;SDS011;29973;43.742;1.236;2023-02-15T17:57:24;75.65;;;34.80;;
44276;SDS011;29973;43.742;1.236;2023-02-15T17:59:50;90.65;;;39.15;;
44276;SDS011;29973;43.742;1.236;2023-02-15T18:02:35;65.75;;;29.45;;
44276;SDS011;29973;43.742;1.236;2023-02-15T18:05:20;40.08;;;16.88;;
44276;SDS011;29973;43.742;1.236;2023-02-15T18:08:07;27.58;;;12.15;;
44276;SDS011;29973;43.742;1.236;2023-02-15T18:10:54;12.48;;;8.02;;
44276;SDS011;29973;43.742;1.236;2023-02-15T18:13:38;32.50;;;15.10;;
44276;SDS011;29973;43.742;1.236;2023-02-15T18:16:03;30.58;;;16.35;;
44276;SDS011;29973;43.742;1.236;2023-02-15T18:18:29;35.33;;;20.38;;
44276;SDS011;29973;43.742;1.236;2023-02-15T18:20:55;28.40;;;14.85;;
44276;SDS011;29973;43.742;1.236;2023-02-15T18:23:21;19.05;;;11.00;;
44276;SDS011;29973;43.742;1.236;2023-02-15T18:25:46;37.20;;;20.23;;
44276;SDS011;29973;43.742;1.236;2023-02-15T18:28:12;37.17;;;19.10;;
44276;SDS011;29973;43.742;1.236;2023-02-15T18:30:38;54.75;;;27.05;;
44276;SDS011;29973;43.742;1.236;2023-02-15T18:33:18;36.75;;;19.55;;
44276;SDS011;29973;43.742;1.236;2023-02-15T18:35:47;22.70;;;13.60;;
44276;SDS011;29973;43.742;1.236;2023-02-15T18:38:15;15.00;;;9.32;;
44276;SDS011;29973;43.742;1.236;2023-02-15T18:40:41;19.75;;;10.30;;
44276;SDS011;29973;43.742;1.236;2023-02-15T18:43:11;16.73;;;11.40;;
44276;SDS011;29973;43.742;1.236;2023-02-15T18:45:37;20.33;;;12.63;;
44276;SDS011;29973;43.742;1.236;2023-02-15T18:48:05;27.52;;;15.50;;
44276;SDS011;29973;43.742;1.236;2023-02-15T18:50:35;22.00;;;13.82;;
44276;SDS011;29973;43.742;1.236;2023-02-15T18:53:02;18.73;;;10.40;;
44276;SDS011;29973;43.742;1.236;2023-02-15T18:55:30;16.25;;;9.48;;